createdAt,value
2022-12-18T00:01:42.047Z,39.65
2022-12-18T00:04:14.136Z,26.13
2022-12-18T00:06:40.983Z,33.40
2022-12-18T00:09:08.405Z,31.05
2022-12-18T00:11:35.068Z,31.42
2022-12-18T00:14:01.777Z,25.15
2022-12-18T00:16:29.089Z,30.17
2022-12-18T00:18:57.639Z,25.55
2022-12-18T00:21:24.325Z,30.70
2022-12-18T00:23:51.148Z,26.50
2022-12-18T00:26:23.034Z,25.15
2022-12-18T00:28:50.071Z,30.50
2022-12-18T00:31:21.316Z,37.67
2022-12-18T00:33:48.123Z,24.17
2022-12-18T00:36:21.969Z,28.40
2022-12-18T00:38:48.824Z,22.23
2022-12-18T00:41:16.331Z,31.35
2022-12-18T00:43:43.172Z,25.75
2022-12-18T00:46:09.953Z,26.08
2022-12-18T00:48:36.688Z,30.27
2022-12-18T00:51:03.510Z,25.35
2022-12-18T00:53:30.209Z,33.47
2022-12-18T00:55:56.892Z,35.47
2022-12-18T00:58:23.586Z,33.83
2022-12-18T01:00:50.300Z,32.75
2022-12-18T01:03:17.092Z,32.67
2022-12-18T01:05:43.877Z,27.98
2022-12-18T01:08:10.565Z,30.40
2022-12-18T01:10:37.228Z,32.22
2022-12-18T01:13:03.949Z,28.67
2022-12-18T01:15:30.610Z,42.45
2022-12-18T01:17:57.331Z,31.30
2022-12-18T01:20:24.016Z,39.47
2022-12-18T01:22:50.672Z,33.90
2022-12-18T01:25:17.437Z,40.30
2022-12-18T01:27:44.144Z,32.30
2022-12-18T01:30:11.342Z,29.17
2022-12-18T01:32:38.063Z,33.35
2022-12-18T01:35:05.201Z,24.08
2022-12-18T01:37:31.965Z,30.60
2022-12-18T01:39:58.648Z,28.55
2022-12-18T01:42:25.357Z,26.90
2022-12-18T01:44:56.476Z,21.98
2022-12-18T01:47:46.256Z,30.25
2022-12-18T01:50:15.910Z,23.52
2022-12-18T01:52:44.248Z,25.85
2022-12-18T01:55:11.140Z,24.48
2022-12-18T01:57:38.520Z,24.02
2022-12-18T02:00:08.917Z,25.73
2022-12-18T02:02:35.737Z,23.45
2022-12-18T02:05:03.544Z,22.50
2022-12-18T02:07:44.430Z,29.50
2022-12-18T02:10:20.464Z,25.33
2022-12-18T02:12:54.097Z,26.15
2022-12-18T02:15:24.344Z,27.27
2022-12-18T02:17:58.432Z,28.88
2022-12-18T02:20:37.033Z,41.08
2022-12-18T02:23:34.557Z,27.75
2022-12-18T02:26:01.207Z,27.55
2022-12-18T02:28:30.701Z,30.08
2022-12-18T02:30:57.812Z,22.98
2022-12-18T02:33:24.525Z,33.40
2022-12-18T02:35:51.196Z,26.27
2022-12-18T02:38:17.897Z,20.58
2022-12-18T02:40:44.623Z,26.58
2022-12-18T02:43:12.667Z,27.42
2022-12-18T02:45:56.134Z,24.65
2022-12-18T02:48:31.991Z,28.25
2022-12-18T02:51:24.915Z,22.67
2022-12-18T02:53:54.652Z,27.08
2022-12-18T02:56:22.871Z,22.63
2022-12-18T02:58:52.554Z,19.35
2022-12-18T03:01:40.059Z,27.92
2022-12-18T03:04:20.375Z,29.60
2022-12-18T03:06:51.105Z,26.52
2022-12-18T03:09:23.477Z,30.17
2022-12-18T03:11:54.860Z,26.75
2022-12-18T03:14:21.593Z,36.25
2022-12-18T03:16:49.821Z,20.00
2022-12-18T03:19:17.986Z,28.80
2022-12-18T03:21:48.574Z,20.33
2022-12-18T03:24:15.251Z,26.02
2022-12-18T03:26:44.914Z,21.60
2022-12-18T03:29:15.247Z,22.30
2022-12-18T03:31:42.138Z,18.83
2022-12-18T03:34:17.218Z,16.60
2022-12-18T03:36:43.901Z,32.53
2022-12-18T03:39:10.566Z,17.75
2022-12-18T03:41:52.563Z,31.63
2022-12-18T03:44:25.236Z,20.35
2022-12-18T03:46:55.754Z,25.23
2022-12-18T03:49:47.686Z,15.65
2022-12-18T03:52:33.729Z,21.52
2022-12-18T03:55:00.412Z,23.40
2022-12-18T03:57:28.967Z,23.92
2022-12-18T04:00:08.812Z,17.35
2022-12-18T04:02:35.787Z,31.90
2022-12-18T04:05:04.002Z,19.10
2022-12-18T04:07:30.670Z,19.02
2022-12-18T04:09:57.909Z,24.60
2022-12-18T04:12:28.096Z,24.15
2022-12-18T04:14:54.812Z,25.13
2022-12-18T04:17:21.771Z,28.98
2022-12-18T04:19:48.443Z,20.70
2022-12-18T04:22:15.143Z,20.95
2022-12-18T04:24:41.874Z,20.38
2022-12-18T04:27:08.611Z,28.35
2022-12-18T04:29:35.281Z,21.08
2022-12-18T04:32:01.972Z,18.48
2022-12-18T04:34:29.548Z,25.67
2022-12-18T04:36:56.250Z,16.25
2022-12-18T04:39:23.735Z,22.42
2022-12-18T04:41:51.440Z,20.75
2022-12-18T04:44:18.397Z,21.50
2022-12-18T04:46:45.119Z,14.35
2022-12-18T04:49:11.802Z,25.20
2022-12-18T04:51:38.491Z,21.20
2022-12-18T04:54:05.191Z,23.95
2022-12-18T04:56:32.391Z,25.92
2022-12-18T04:58:59.064Z,17.38
2022-12-18T05:01:30.998Z,24.10
2022-12-18T05:04:01.286Z,24.30
2022-12-18T05:06:27.995Z,22.35
2022-12-18T05:08:54.675Z,24.98
2022-12-18T05:11:21.368Z,21.73
2022-12-18T05:13:48.066Z,20.38
2022-12-18T05:16:15.011Z,22.40
2022-12-18T05:18:41.772Z,31.48
2022-12-18T05:21:08.572Z,23.75
2022-12-18T05:23:35.241Z,20.58
2022-12-18T05:26:03.070Z,30.30
2022-12-18T05:28:30.475Z,20.70
2022-12-18T05:30:59.217Z,29.17
2022-12-18T05:33:26.622Z,22.63
2022-12-18T05:35:57.817Z,32.03
2022-12-18T05:38:25.343Z,24.17
2022-12-18T05:40:52.308Z,33.80
2022-12-18T05:43:21.604Z,38.75
2022-12-18T05:45:48.780Z,26.13
2022-12-18T05:48:15.784Z,32.17
2022-12-18T05:50:43.838Z,30.42
2022-12-18T05:53:10.580Z,32.20
2022-12-18T05:55:37.604Z,23.67
2022-12-18T05:58:05.021Z,28.65
2022-12-18T06:00:32.328Z,26.33
2022-12-18T06:02:59.632Z,24.88
2022-12-18T06:05:26.618Z,22.85
2022-12-18T06:07:53.300Z,31.83
2022-12-18T06:10:20.305Z,24.90
2022-12-18T06:12:46.985Z,19.55
2022-12-18T06:15:14.251Z,54.60
2022-12-18T06:17:40.958Z,29.35
2022-12-18T06:20:08.043Z,35.08
2022-12-18T06:22:34.713Z,25.30
2022-12-18T06:25:01.605Z,16.77
2022-12-18T06:27:28.267Z,25.00
2022-12-18T06:29:54.959Z,24.52
2022-12-18T06:32:21.803Z,25.50
2022-12-18T06:34:48.493Z,21.55
2022-12-18T06:37:15.143Z,30.00
2022-12-18T06:39:41.826Z,25.52
2022-12-18T06:42:08.486Z,32.55
2022-12-18T06:44:35.231Z,26.20
2022-12-18T06:47:02.068Z,30.27
2022-12-18T06:49:30.653Z,26.95
2022-12-18T06:51:57.547Z,21.80
2022-12-18T06:54:24.217Z,19.75
2022-12-18T06:56:50.891Z,22.50
2022-12-18T06:59:17.794Z,30.35
2022-12-18T07:01:44.579Z,21.70
2022-12-18T07:04:11.419Z,34.95
2022-12-18T07:06:38.108Z,25.27
2022-12-18T07:09:04.804Z,31.33
2022-12-18T07:11:33.669Z,23.33
2022-12-18T07:14:00.384Z,25.42
2022-12-18T07:16:27.319Z,44.55
2022-12-18T07:18:54.887Z,31.40
2022-12-18T07:21:21.646Z,20.17
2022-12-18T07:23:48.345Z,37.45
2022-12-18T07:26:16.213Z,34.47
2022-12-18T07:28:43.299Z,25.45
2022-12-18T07:31:21.651Z,26.55
2022-12-18T07:33:48.748Z,18.90
2022-12-18T07:36:15.451Z,31.88
2022-12-18T07:38:42.224Z,34.20
2022-12-18T07:41:10.970Z,25.27
2022-12-18T07:43:38.133Z,38.53
2022-12-18T07:46:05.490Z,27.58
2022-12-18T07:48:32.398Z,28.63
2022-12-18T07:51:03.141Z,19.42
2022-12-18T07:53:29.807Z,21.75
2022-12-18T07:56:25.589Z,29.33
2022-12-18T07:58:44.528Z,27.20
2022-12-18T08:01:12.066Z,40.97
2022-12-18T08:03:39.547Z,27.73
2022-12-18T08:06:08.103Z,21.35
2022-12-18T08:08:34.993Z,24.52
2022-12-18T08:11:01.695Z,24.25
2022-12-18T08:13:28.599Z,22.38
2022-12-18T08:16:06.586Z,32.10
2022-12-18T08:18:35.351Z,29.58
2022-12-18T08:21:12.516Z,31.05
2022-12-18T08:23:42.694Z,23.73
2022-12-18T08:26:10.384Z,21.13
2022-12-18T08:28:37.074Z,29.95
2022-12-18T08:31:03.843Z,30.40
2022-12-18T08:33:30.584Z,23.60
2022-12-18T08:35:57.222Z,23.63
2022-12-18T08:38:23.946Z,23.38
2022-12-18T08:40:50.606Z,26.55
2022-12-18T08:43:17.304Z,21.05
2022-12-18T08:45:44.096Z,22.02
2022-12-18T08:48:10.860Z,26.20
2022-12-18T08:50:37.562Z,26.73
2022-12-18T08:53:04.340Z,39.00
2022-12-18T08:55:31.021Z,41.50
2022-12-18T08:57:57.736Z,26.90
2022-12-18T09:00:24.461Z,38.20
2022-12-18T09:02:51.367Z,23.92
2022-12-18T09:05:18.153Z,28.35
2022-12-18T09:07:44.852Z,30.88
2022-12-18T09:10:12.105Z,27.40
2022-12-18T09:12:38.783Z,26.27
2022-12-18T09:15:06.020Z,33.13
2022-12-18T09:17:32.700Z,27.73
2022-12-18T09:19:59.403Z,27.70
2022-12-18T09:22:26.136Z,21.92
2022-12-18T09:24:52.816Z,27.17
2022-12-18T09:27:19.490Z,30.30
2022-12-18T09:29:46.723Z,28.05
2022-12-18T09:32:16.374Z,29.73
2022-12-18T09:34:47.259Z,27.38
2022-12-18T09:37:14.023Z,25.48
2022-12-18T09:39:40.714Z,22.23
2022-12-18T09:42:07.399Z,28.73
2022-12-18T09:44:44.472Z,33.63
2022-12-18T09:47:22.182Z,36.70
2022-12-18T09:49:51.945Z,30.95
2022-12-18T09:52:36.940Z,25.30
2022-12-18T09:55:37.122Z,25.95
2022-12-18T09:58:19.580Z,29.00
2022-12-18T10:00:46.252Z,23.33
2022-12-18T10:03:14.456Z,35.40
2022-12-18T10:05:59.494Z,27.05
2022-12-18T10:08:52.765Z,34.50
2022-12-18T10:11:45.043Z,28.92
2022-12-18T10:14:38.826Z,19.88
2022-12-18T10:17:15.138Z,28.80
2022-12-18T10:19:53.528Z,28.60
2022-12-18T10:22:36.402Z,35.35
2022-12-18T10:25:30.240Z,22.73
2022-12-18T10:28:18.354Z,37.38
2022-12-18T10:30:45.329Z,23.38
2022-12-18T10:33:20.766Z,20.60
2022-12-18T10:35:48.170Z,28.48
2022-12-18T10:38:17.875Z,24.58
2022-12-18T10:41:01.156Z,36.90
2022-12-18T10:43:32.106Z,24.48
2022-12-18T10:46:03.000Z,28.85
2022-12-18T10:48:29.849Z,25.38
2022-12-18T10:51:12.412Z,21.20
2022-12-18T10:53:40.775Z,18.90
2022-12-18T10:56:07.836Z,22.45
2022-12-18T10:58:38.848Z,21.65
2022-12-18T11:01:12.325Z,19.42
2022-12-18T11:04:02.703Z,22.70
2022-12-18T11:06:29.855Z,21.02
2022-12-18T11:09:01.650Z,21.13
2022-12-18T11:11:28.384Z,18.75
2022-12-18T11:14:04.984Z,17.88
2022-12-18T11:16:37.446Z,18.75
2022-12-18T11:19:36.763Z,21.60
2022-12-18T11:22:18.662Z,23.80
2022-12-18T11:25:29.645Z,21.65
2022-12-18T11:27:42.181Z,18.52
2022-12-18T11:30:21.055Z,33.35
2022-12-18T11:33:07.983Z,23.50
2022-12-18T11:35:49.442Z,24.50
2022-12-18T11:38:19.132Z,20.80
2022-12-18T11:40:47.098Z,38.05
2022-12-18T11:43:33.294Z,23.08
2022-12-18T11:46:07.807Z,23.33
2022-12-18T11:48:40.024Z,25.60
2022-12-18T11:51:10.442Z,24.88
2022-12-18T11:53:37.144Z,21.20
2022-12-18T11:56:27.755Z,23.05
2022-12-18T11:59:07.159Z,21.23
2022-12-18T12:01:37.645Z,26.10
2022-12-18T12:04:27.258Z,21.15
2022-12-18T12:07:12.349Z,30.52
2022-12-18T12:09:46.237Z,22.08
2022-12-18T12:12:15.673Z,20.35
2022-12-18T12:14:48.623Z,28.30
2022-12-18T12:19:54.058Z,31.50
2022-12-18T12:22:37.770Z,18.58
2022-12-18T12:25:10.424Z,21.90
2022-12-18T12:28:15.299Z,19.00
2022-12-18T12:30:53.890Z,14.80
2022-12-18T12:33:38.701Z,20.80
2022-12-18T12:36:11.411Z,21.20
2022-12-18T12:38:58.649Z,24.35
2022-12-18T12:41:26.884Z,17.15
2022-12-18T12:43:53.777Z,19.92
2022-12-18T12:46:21.047Z,34.25
2022-12-18T12:49:00.608Z,17.73
2022-12-18T12:51:31.787Z,25.95
2022-12-18T12:53:59.452Z,25.92
2022-12-18T12:56:30.724Z,23.67
2022-12-18T12:59:00.423Z,28.67
2022-12-18T13:01:29.952Z,16.50
2022-12-18T13:07:16.156Z,27.00
2022-12-18T13:10:31.975Z,26.50
2022-12-18T13:13:09.376Z,19.90
2022-12-18T13:13:43.824Z,20.80
2022-12-18T13:15:47.116Z,21.73
2022-12-18T13:18:23.274Z,18.83
2022-12-18T13:21:22.881Z,16.48
2022-12-18T13:23:49.614Z,17.80
2022-12-18T13:26:24.792Z,17.90
2022-12-18T13:28:54.995Z,14.02
2022-12-18T13:31:31.016Z,17.80
2022-12-18T13:34:26.685Z,14.43
2022-12-18T13:36:55.545Z,28.33
2022-12-18T13:39:34.740Z,12.55
2022-12-18T13:42:08.095Z,19.95
2022-12-18T13:44:41.810Z,14.75
2022-12-18T13:47:34.448Z,12.93
2022-12-18T13:50:01.956Z,10.38
2022-12-18T13:52:35.964Z,13.55
2022-12-18T13:55:03.506Z,18.05
2022-12-18T13:57:33.131Z,15.88
2022-12-18T14:00:15.594Z,12.82
2022-12-18T14:02:42.473Z,21.95
2022-12-18T14:05:47.884Z,11.10
2022-12-18T14:08:15.641Z,12.52
2022-12-18T14:10:47.990Z,12.95
2022-12-18T14:13:37.179Z,15.57
2022-12-18T14:16:05.099Z,13.38
2022-12-18T14:18:48.898Z,17.90
2022-12-18T14:21:28.090Z,11.38
2022-12-18T14:24:07.099Z,14.38
2022-12-18T14:26:33.881Z,11.52
2022-12-18T14:29:02.371Z,9.48
2022-12-18T14:31:30.616Z,14.93
2022-12-18T14:33:57.304Z,9.73
2022-12-18T14:36:28.394Z,11.75
2022-12-18T14:38:59.054Z,10.05
2022-12-18T14:41:26.222Z,15.00
2022-12-18T14:43:54.034Z,26.88
2022-12-18T14:46:40.211Z,15.35
2022-12-18T14:49:29.961Z,18.38
2022-12-18T14:52:00.886Z,15.43
2022-12-18T14:54:28.123Z,10.65
2022-12-18T14:57:06.324Z,10.25
2022-12-18T14:59:33.028Z,17.00
2022-12-18T15:02:18.251Z,11.82
2022-12-18T15:04:45.168Z,18.10
2022-12-18T15:07:15.996Z,9.68
2022-12-18T15:10:04.802Z,11.70
2022-12-18T15:12:36.599Z,16.20
2022-12-18T15:15:04.609Z,10.73
2022-12-18T15:17:31.416Z,11.30
2022-12-18T15:20:10.304Z,9.23
2022-12-18T15:22:37.199Z,6.68
2022-12-18T15:25:17.419Z,9.52
2022-12-18T15:27:46.823Z,8.52
2022-12-18T15:30:18.513Z,13.75
2022-12-18T15:32:45.307Z,13.38
2022-12-18T15:35:12.057Z,8.50
2022-12-18T15:37:38.910Z,8.88
2022-12-18T15:40:07.278Z,11.95
2022-12-18T15:42:33.976Z,10.75
2022-12-18T15:45:00.679Z,11.18
2022-12-18T15:47:27.340Z,10.38
2022-12-18T15:49:54.007Z,10.40
2022-12-18T15:52:20.678Z,8.85
2022-12-18T15:54:47.374Z,11.85
2022-12-18T15:57:14.171Z,11.75
2022-12-18T15:59:41.031Z,9.88
2022-12-18T16:02:13.805Z,9.45
2022-12-18T16:07:16.227Z,8.93
2022-12-18T16:09:49.898Z,8.98
2022-12-18T16:12:22.788Z,6.80
2022-12-18T16:17:16.226Z,10.60
2022-12-18T16:19:42.922Z,7.97
2022-12-18T16:22:22.721Z,4.00
2022-12-18T16:24:49.684Z,5.63
2022-12-18T16:27:16.363Z,13.20
2022-12-18T16:29:43.053Z,5.60
2022-12-18T16:32:11.778Z,5.45
2022-12-18T16:34:38.509Z,7.57
2022-12-18T16:37:06.622Z,3.20
2022-12-18T16:39:36.832Z,16.30
2022-12-18T16:42:17.593Z,3.78
2022-12-18T16:44:44.660Z,3.38
2022-12-18T16:47:13.243Z,5.72
2022-12-18T16:49:42.012Z,4.35
2022-12-18T16:52:08.666Z,2.42
2022-12-18T16:54:35.428Z,2.92
2022-12-18T16:57:02.252Z,4.32
2022-12-18T16:59:29.117Z,4.13
2022-12-18T17:01:57.009Z,4.63
2022-12-18T17:04:23.869Z,8.90
2022-12-18T17:06:50.526Z,5.78
2022-12-18T17:09:17.647Z,3.25
2022-12-18T17:11:44.366Z,2.63
2022-12-18T17:14:19.126Z,6.95
2022-12-18T17:16:46.381Z,4.32
2022-12-18T17:19:17.076Z,3.03
2022-12-18T17:21:45.033Z,6.38
2022-12-18T17:24:11.856Z,4.47
2022-12-18T17:26:38.559Z,5.78
2022-12-18T17:29:05.311Z,2.20
2022-12-18T17:31:32.220Z,2.97
2022-12-18T17:33:58.948Z,7.43
2022-12-18T17:36:25.768Z,2.58
2022-12-18T17:38:56.371Z,6.47
2022-12-18T17:41:23.324Z,5.57
2022-12-18T17:43:54.662Z,5.55
2022-12-18T17:46:21.563Z,3.10
2022-12-18T17:48:48.468Z,6.20
2022-12-18T17:51:15.438Z,6.63
2022-12-18T17:53:42.465Z,13.52
2022-12-18T17:56:12.272Z,2.13
2022-12-18T17:58:39.114Z,1.67
2022-12-18T18:01:06.053Z,10.85
2022-12-18T18:03:33.317Z,6.05
2022-12-18T18:06:00.813Z,1.83
2022-12-18T18:08:27.740Z,5.75
2022-12-18T18:10:54.849Z,2.67
2022-12-18T18:13:23.029Z,14.43
2022-12-18T18:15:58.949Z,4.22
2022-12-18T18:18:25.689Z,3.47
2022-12-18T18:20:52.367Z,3.08
2022-12-18T18:23:20.680Z,10.13
2022-12-18T18:25:47.402Z,11.45
2022-12-18T18:28:14.091Z,8.00
2022-12-18T18:30:40.743Z,10.02
2022-12-18T18:33:11.832Z,3.40
2022-12-18T18:35:53.790Z,3.00
2022-12-18T18:38:21.005Z,2.13
2022-12-18T18:40:47.718Z,7.20
2022-12-18T18:43:14.401Z,3.17
2022-12-18T18:45:41.140Z,2.30
2022-12-18T18:48:09.596Z,8.25
2022-12-18T18:50:36.287Z,4.32
2022-12-18T18:53:02.965Z,10.40
2022-12-18T18:55:29.611Z,7.10
2022-12-18T18:57:56.293Z,15.13
2022-12-18T19:00:23.156Z,3.88
2022-12-18T19:02:50.367Z,2.88
2022-12-18T19:05:17.233Z,2.20
2022-12-18T19:07:43.902Z,4.03
2022-12-18T19:10:10.566Z,2.58
2022-12-18T19:12:37.269Z,6.60
2022-12-18T19:15:06.604Z,2.72
2022-12-18T19:17:33.384Z,3.67
2022-12-18T19:20:00.797Z,5.63
2022-12-18T19:22:27.498Z,5.43
2022-12-18T19:24:54.212Z,3.65
2022-12-18T19:27:20.898Z,1.92
2022-12-18T19:29:48.962Z,2.85
2022-12-18T19:32:15.731Z,3.35
2022-12-18T19:34:42.476Z,4.88
2022-12-18T19:37:11.866Z,3.58
2022-12-18T19:39:38.641Z,2.83
2022-12-18T19:42:05.375Z,5.75
2022-12-18T19:44:32.067Z,3.17
2022-12-18T19:46:58.739Z,5.28
2022-12-18T19:49:25.409Z,4.82
2022-12-18T19:51:52.116Z,2.92
2022-12-18T19:54:18.835Z,13.18
2022-12-18T19:56:45.804Z,4.07
2022-12-18T19:59:12.509Z,4.55
2022-12-18T20:01:39.296Z,3.55
2022-12-18T20:04:06.369Z,4.30
2022-12-18T20:06:35.099Z,9.63
2022-12-18T20:09:04.415Z,2.92
2022-12-18T20:11:31.541Z,1.92
2022-12-18T20:13:58.311Z,2.35
2022-12-18T20:16:25.038Z,12.23
2022-12-18T20:18:52.431Z,9.10
2022-12-18T20:21:19.608Z,4.97
2022-12-18T20:23:46.298Z,3.58
2022-12-18T20:26:13.178Z,3.67
2022-12-18T20:28:40.346Z,4.80
2022-12-18T20:31:07.748Z,18.27
2022-12-18T20:33:34.963Z,1.55
2022-12-18T20:36:02.854Z,2.88
2022-12-18T20:38:30.368Z,13.13
2022-12-18T20:40:58.427Z,9.05
2022-12-18T20:43:25.154Z,1.58
2022-12-18T20:45:51.902Z,3.85
2022-12-18T20:48:23.561Z,7.30
2022-12-18T20:51:04.189Z,6.10
2022-12-18T20:53:31.148Z,4.30
2022-12-18T20:55:57.860Z,5.20
2022-12-18T20:58:24.973Z,6.80
2022-12-18T21:01:05.973Z,11.52
2022-12-18T21:03:32.766Z,6.20
2022-12-18T21:05:59.462Z,3.67
2022-12-18T21:08:26.152Z,1.65
2022-12-18T21:10:52.868Z,7.85
2022-12-18T21:13:22.268Z,1.65
2022-12-18T21:15:48.952Z,1.58
2022-12-18T21:18:15.637Z,9.30
2022-12-18T21:20:42.384Z,5.88
2022-12-18T21:23:16.242Z,5.32
2022-12-18T21:25:44.212Z,5.18
2022-12-18T21:28:12.324Z,2.65
2022-12-18T21:30:39.074Z,2.20
2022-12-18T21:33:05.767Z,7.20
2022-12-18T21:35:32.472Z,5.68
2022-12-18T21:37:59.153Z,2.47
2022-12-18T21:40:25.837Z,1.35
2022-12-18T21:42:52.666Z,25.05
2022-12-18T21:45:19.482Z,26.08
2022-12-18T21:47:46.187Z,5.22
2022-12-18T21:50:12.914Z,14.18
2022-12-18T21:52:39.638Z,4.53
2022-12-18T21:55:09.963Z,17.48
2022-12-18T21:57:38.276Z,3.22
2022-12-18T22:00:06.330Z,6.40
2022-12-18T22:02:36.058Z,4.97
2022-12-18T22:05:02.896Z,4.57
2022-12-18T22:07:29.970Z,3.33
2022-12-18T22:09:58.807Z,8.90
2022-12-18T22:12:26.780Z,7.30
2022-12-18T22:14:53.548Z,4.20
2022-12-18T22:17:20.198Z,4.53
2022-12-18T22:19:48.026Z,2.55
2022-12-18T22:22:14.722Z,6.55
2022-12-18T22:24:41.460Z,14.45
2022-12-18T22:27:09.063Z,8.20
2022-12-18T22:29:35.831Z,12.15
2022-12-18T22:32:03.277Z,21.50
2022-12-18T22:34:34.241Z,19.73
2022-12-18T22:37:03.014Z,11.05
2022-12-18T22:39:30.023Z,16.90
2022-12-18T22:41:57.584Z,16.25
2022-12-18T22:44:24.438Z,6.38
2022-12-18T22:47:05.614Z,12.15
2022-12-18T22:49:34.940Z,10.30
2022-12-18T22:52:02.788Z,15.98
2022-12-18T22:54:30.905Z,8.50
2022-12-18T22:56:57.612Z,6.20
2022-12-18T22:59:24.377Z,2.70
2022-12-18T23:01:58.700Z,10.60
2022-12-18T23:04:36.259Z,12.73
2022-12-18T23:07:04.668Z,13.05
2022-12-18T23:09:31.419Z,10.30
2022-12-18T23:11:58.103Z,21.27
2022-12-18T23:14:24.825Z,20.17
2022-12-18T23:16:52.331Z,4.45
2022-12-18T23:19:20.139Z,13.52
2022-12-18T23:21:46.934Z,15.90
2022-12-18T23:24:13.720Z,19.63
2022-12-18T23:26:40.431Z,15.73
2022-12-18T23:29:07.171Z,11.43
2022-12-18T23:31:35.300Z,20.00
2022-12-18T23:34:02.345Z,15.18
2022-12-18T23:36:29.571Z,10.10
2022-12-18T23:39:00.012Z,7.97
2022-12-18T23:41:28.396Z,18.08
2022-12-18T23:43:55.063Z,10.68
2022-12-18T23:46:24.592Z,29.67
2022-12-18T23:48:51.389Z,5.78
2022-12-18T23:51:19.361Z,7.22
2022-12-18T23:53:46.254Z,12.70
2022-12-18T23:56:13.149Z,19.33
2022-12-18T23:58:39.992Z,9.38
